Airport View

Enter AWOS ICAO identifier for current METAR.

ex. KFNL

KD60 200025Z AUTO 13008KT 10SM BKN090 M05/M08 A3007 RMK AO2

20 Oct 2020 00:29

Frequency: 118.575

Phone: 701-664-4490

Other Area AWOS: K08D - KISN - KD50 - KS25